sensor_id;sensor_type;location;lat;lon;timestamp;pressure;altitude;pressure_sealevel;temperature;humidity
55916;BME280;41826;53.246;-6.670;2023-05-23T00:00:06;100426.97;;;11.55;100.00
55916;BME280;41826;53.246;-6.670;2023-05-23T00:02:31;100425.78;;;11.49;100.00
55916;BME280;41826;53.246;-6.670;2023-05-23T00:04:57;100425.97;;;11.56;100.00
55916;BME280;41826;53.246;-6.670;2023-05-23T00:07:23;100439.34;;;11.62;100.00
55916;BME280;41826;53.246;-6.670;2023-05-23T00:09:48;100426.72;;;11.40;100.00
55916;BME280;41826;53.246;-6.670;2023-05-23T00:12:13;100463.34;;;11.67;100.00
55916;BME280;41826;53.246;-6.670;2023-05-23T00:14:39;100437.97;;;11.06;100.00
55916;BME280;41826;53.246;-6.670;2023-05-23T00:17:04;100435.47;;;11.48;100.00
55916;BME280;41826;53.246;-6.670;2023-05-23T00:19:32;100481.97;;;11.82;100.00
55916;BME280;41826;53.246;-6.670;2023-05-23T00:22:00;100483.53;;;11.67;100.00
55916;BME280;41826;53.246;-6.670;2023-05-23T00:24:27;100461.63;;;11.50;100.00
55916;BME280;41826;53.246;-6.670;2023-05-23T00:26:52;100439.44;;;11.26;100.00
55916;BME280;41826;53.246;-6.670;2023-05-23T00:29:18;100448.53;;;11.32;100.00
55916;BME280;41826;53.246;-6.670;2023-05-23T00:31:44;100448.00;;;11.28;100.00
55916;BME280;41826;53.246;-6.670;2023-05-23T00:34:15;100442.59;;;11.30;100.00
55916;BME280;41826;53.246;-6.670;2023-05-23T00:36:44;100451.19;;;11.40;100.00
55916;BME280;41826;53.246;-6.670;2023-05-23T00:39:11;100433.09;;;11.11;100.00
55916;BME280;41826;53.246;-6.670;2023-05-23T00:41:44;100419.94;;;11.11;100.00
55916;BME280;41826;53.246;-6.670;2023-05-23T00:44:09;100434.50;;;11.23;100.00
55916;BME280;41826;53.246;-6.670;2023-05-23T00:46:35;100479.66;;;11.45;100.00
55916;BME280;41826;53.246;-6.670;2023-05-23T00:49:01;100477.31;;;11.42;100.00
55916;BME280;41826;53.246;-6.670;2023-05-23T00:51:26;100535.59;;;11.55;100.00
55916;BME280;41826;53.246;-6.670;2023-05-23T00:53:52;100505.16;;;11.53;100.00
55916;BME280;41826;53.246;-6.670;2023-05-23T00:56:19;100547.28;;;11.61;100.00
55916;BME280;41826;53.246;-6.670;2023-05-23T00:58:45;100496.09;;;11.47;100.00
55916;BME280;41826;53.246;-6.670;2023-05-23T01:01:11;100494.78;;;11.25;100.00
55916;BME280;41826;53.246;-6.670;2023-05-23T01:03:38;100488.59;;;11.34;100.00
55916;BME280;41826;53.246;-6.670;2023-05-23T01:06:03;100492.25;;;11.41;100.00
55916;BME280;41826;53.246;-6.670;2023-05-23T01:08:28;100489.13;;;11.38;100.00
55916;BME280;41826;53.246;-6.670;2023-05-23T01:10:55;100549.81;;;11.44;100.00
55916;BME280;41826;53.246;-6.670;2023-05-23T01:13:46;100596.50;;;11.50;100.00
55916;BME280;41826;53.246;-6.670;2023-05-23T01:16:18;100627.22;;;11.50;100.00
55916;BME280;41826;53.246;-6.670;2023-05-23T01:21:43;100607.78;;;11.43;100.00
55916;BME280;41826;53.246;-6.670;2023-05-23T01:24:53;100658.78;;;11.50;100.00
55916;BME280;41826;53.246;-6.670;2023-05-23T01:30:03;100677.38;;;11.39;100.00
55916;BME280;41826;53.246;-6.670;2023-05-23T01:32:31;100697.59;;;11.38;100.00
55916;BME280;41826;53.246;-6.670;2023-05-23T01:34:58;100709.47;;;11.42;100.00
55916;BME280;41826;53.246;-6.670;2023-05-23T01:37:24;100720.19;;;11.49;100.00
55916;BME280;41826;53.246;-6.670;2023-05-23T01:39:50;100719.81;;;11.44;100.00
55916;BME280;41826;53.246;-6.670;2023-05-23T01:42:15;100745.53;;;11.50;100.00
55916;BME280;41826;53.246;-6.670;2023-05-23T01:44:42;100756.41;;;11.55;100.00
55916;BME280;41826;53.246;-6.670;2023-05-23T01:47:08;100693.59;;;11.34;100.00
55916;BME280;41826;53.246;-6.670;2023-05-23T01:49:36;100721.38;;;11.37;100.00
55916;BME280;41826;53.246;-6.670;2023-05-23T01:52:02;100662.78;;;11.09;100.00
55916;BME280;41826;53.246;-6.670;2023-05-23T01:54:28;100580.25;;;10.83;100.00
55916;BME280;41826;53.246;-6.670;2023-05-23T01:56:58;100600.44;;;10.83;100.00
55916;BME280;41826;53.246;-6.670;2023-05-23T01:59:24;100591.38;;;10.95;100.00
55916;BME280;41826;53.246;-6.670;2023-05-23T02:01:50;100548.47;;;10.87;100.00
55916;BME280;41826;53.246;-6.670;2023-05-23T02:04:16;100563.63;;;10.93;100.00
55916;BME280;41826;53.246;-6.670;2023-05-23T02:06:41;100585.44;;;10.93;100.00
55916;BME280;41826;53.246;-6.670;2023-05-23T02:09:07;100620.66;;;11.00;100.00
55916;BME280;41826;53.246;-6.670;2023-05-23T02:11:33;100621.47;;;11.01;100.00
55916;BME280;41826;53.246;-6.670;2023-05-23T02:13:58;100627.19;;;10.96;100.00
55916;BME280;41826;53.246;-6.670;2023-05-23T02:16:23;100624.41;;;10.98;100.00
55916;BME280;41826;53.246;-6.670;2023-05-23T02:18:50;100622.78;;;10.97;100.00
55916;BME280;41826;53.246;-6.670;2023-05-23T02:21:17;100659.19;;;11.10;100.00
55916;BME280;41826;53.246;-6.670;2023-05-23T02:23:42;100632.16;;;10.99;100.00
55916;BME280;41826;53.246;-6.670;2023-05-23T02:26:08;100584.56;;;10.57;100.00
55916;BME280;41826;53.246;-6.670;2023-05-23T02:28:33;100481.13;;;10.22;100.00
55916;BME280;41826;53.246;-6.670;2023-05-23T02:30:59;100436.38;;;10.33;100.00
55916;BME280;41826;53.246;-6.670;2023-05-23T02:33:24;100426.53;;;10.35;100.00
55916;BME280;41826;53.246;-6.670;2023-05-23T02:35:53;100426.38;;;10.37;100.00
55916;BME280;41826;53.246;-6.670;2023-05-23T02:38:19;100426.91;;;10.40;100.00
55916;BME280;41826;53.246;-6.670;2023-05-23T02:40:45;100465.16;;;10.43;100.00
55916;BME280;41826;53.246;-6.670;2023-05-23T02:43:10;100513.00;;;10.55;100.00
55916;BME280;41826;53.246;-6.670;2023-05-23T02:45:35;100549.41;;;10.68;100.00
55916;BME280;41826;53.246;-6.670;2023-05-23T02:48:01;100582.81;;;10.75;100.00
55916;BME280;41826;53.246;-6.670;2023-05-23T02:50:26;100587.66;;;10.70;100.00
55916;BME280;41826;53.246;-6.670;2023-05-23T02:52:52;100611.69;;;10.75;100.00
55916;BME280;41826;53.246;-6.670;2023-05-23T02:55:17;100586.03;;;10.69;100.00
55916;BME280;41826;53.246;-6.670;2023-05-23T02:57:42;100509.13;;;10.59;100.00
55916;BME280;41826;53.246;-6.670;2023-05-23T03:00:08;100502.00;;;10.51;100.00
55916;BME280;41826;53.246;-6.670;2023-05-23T03:02:34;100484.50;;;10.42;100.00
55916;BME280;41826;53.246;-6.670;2023-05-23T03:05:00;100457.28;;;10.43;100.00
55916;BME280;41826;53.246;-6.670;2023-05-23T03:07:25;100509.69;;;10.53;100.00
55916;BME280;41826;53.246;-6.670;2023-05-23T03:09:51;100554.09;;;10.74;100.00
55916;BME280;41826;53.246;-6.670;2023-05-23T03:12:16;100587.69;;;10.88;100.00
55916;BME280;41826;53.246;-6.670;2023-05-23T03:14:41;100622.91;;;10.95;100.00
55916;BME280;41826;53.246;-6.670;2023-05-23T03:17:07;100634.16;;;10.88;100.00
55916;BME280;41826;53.246;-6.670;2023-05-23T03:19:32;100671.22;;;10.84;100.00
55916;BME280;41826;53.246;-6.670;2023-05-23T03:21:58;100678.16;;;10.76;100.00
55916;BME280;41826;53.246;-6.670;2023-05-23T03:24:23;100696.81;;;10.73;100.00
55916;BME280;41826;53.246;-6.670;2023-05-23T03:26:48;100693.91;;;10.76;100.00
55916;BME280;41826;53.246;-6.670;2023-05-23T03:29:14;100707.38;;;10.91;100.00
55916;BME280;41826;53.246;-6.670;2023-05-23T03:31:39;100721.59;;;10.98;100.00
55916;BME280;41826;53.246;-6.670;2023-05-23T03:34:05;100728.53;;;10.99;100.00
55916;BME280;41826;53.246;-6.670;2023-05-23T03:36:30;100739.72;;;10.91;100.00
55916;BME280;41826;53.246;-6.670;2023-05-23T03:39:00;100729.53;;;10.78;100.00
55916;BME280;41826;53.246;-6.670;2023-05-23T03:41:25;100723.91;;;10.73;100.00
55916;BME280;41826;53.246;-6.670;2023-05-23T03:43:51;100728.50;;;10.71;100.00
55916;BME280;41826;53.246;-6.670;2023-05-23T03:46:16;100738.13;;;10.71;100.00
55916;BME280;41826;53.246;-6.670;2023-05-23T03:48:41;100742.56;;;10.70;100.00
55916;BME280;41826;53.246;-6.670;2023-05-23T03:51:07;100747.72;;;10.62;100.00
55916;BME280;41826;53.246;-6.670;2023-05-23T03:53:32;100746.91;;;10.61;100.00
55916;BME280;41826;53.246;-6.670;2023-05-23T03:55:58;100748.28;;;10.56;100.00
55916;BME280;41826;53.246;-6.670;2023-05-23T03:58:23;100744.78;;;10.65;100.00
55916;BME280;41826;53.246;-6.670;2023-05-23T04:00:48;100746.19;;;10.69;100.00
55916;BME280;41826;53.246;-6.670;2023-05-23T04:03:14;100741.22;;;10.66;100.00
55916;BME280;41826;53.246;-6.670;2023-05-23T04:05:41;100704.19;;;10.59;100.00
55916;BME280;41826;53.246;-6.670;2023-05-23T04:08:07;100651.03;;;10.48;100.00
55916;BME280;41826;53.246;-6.670;2023-05-23T04:10:32;100586.88;;;10.32;100.00
55916;BME280;41826;53.246;-6.670;2023-05-23T04:12:57;100464.63;;;10.12;100.00
55916;BME280;41826;53.246;-6.670;2023-05-23T04:15:23;100425.66;;;10.17;100.00
55916;BME280;41826;53.246;-6.670;2023-05-23T04:17:49;100469.09;;;10.29;100.00
55916;BME280;41826;53.246;-6.670;2023-05-23T04:20:16;100517.41;;;10.36;100.00
55916;BME280;41826;53.246;-6.670;2023-05-23T04:22:41;100505.97;;;10.28;100.00
55916;BME280;41826;53.246;-6.670;2023-05-23T04:25:07;100553.72;;;10.41;100.00
55916;BME280;41826;53.246;-6.670;2023-05-23T04:27:33;100564.31;;;10.49;100.00
55916;BME280;41826;53.246;-6.670;2023-05-23T04:29:59;100594.78;;;10.60;100.00
55916;BME280;41826;53.246;-6.670;2023-05-23T04:32:25;100611.06;;;10.63;100.00
55916;BME280;41826;53.246;-6.670;2023-05-23T04:34:50;100635.53;;;10.64;100.00
55916;BME280;41826;53.246;-6.670;2023-05-23T04:37:17;100604.19;;;10.53;100.00
55916;BME280;41826;53.246;-6.670;2023-05-23T04:39:49;100619.16;;;10.43;100.00
55916;BME280;41826;53.246;-6.670;2023-05-23T04:42:14;100614.50;;;10.36;100.00
55916;BME280;41826;53.246;-6.670;2023-05-23T04:44:39;100516.59;;;10.26;100.00
55916;BME280;41826;53.246;-6.670;2023-05-23T04:47:06;100555.41;;;10.32;100.00
55916;BME280;41826;53.246;-6.670;2023-05-23T04:49:34;100562.59;;;10.30;100.00
55916;BME280;41826;53.246;-6.670;2023-05-23T04:52:00;100604.00;;;10.36;100.00
55916;BME280;41826;53.246;-6.670;2023-05-23T04:54:26;100617.81;;;10.38;100.00
55916;BME280;41826;53.246;-6.670;2023-05-23T04:56:51;100630.34;;;10.45;100.00
55916;BME280;41826;53.246;-6.670;2023-05-23T04:59:17;100644.41;;;10.53;100.00
55916;BME280;41826;53.246;-6.670;2023-05-23T05:01:42;100660.69;;;10.57;100.00
55916;BME280;41826;53.246;-6.670;2023-05-23T05:04:08;100671.97;;;10.67;100.00
55916;BME280;41826;53.246;-6.670;2023-05-23T05:06:33;100682.19;;;10.70;100.00
55916;BME280;41826;53.246;-6.670;2023-05-23T05:08:58;100701.66;;;10.77;100.00
55916;BME280;41826;53.246;-6.670;2023-05-23T05:11:25;100689.25;;;10.70;100.00
55916;BME280;41826;53.246;-6.670;2023-05-23T05:13:51;100682.47;;;10.67;100.00
55916;BME280;41826;53.246;-6.670;2023-05-23T05:16:16;100670.34;;;10.66;100.00
55916;BME280;41826;53.246;-6.670;2023-05-23T05:18:42;100686.34;;;10.63;100.00
55916;BME280;41826;53.246;-6.670;2023-05-23T05:21:07;100695.75;;;10.66;100.00
55916;BME280;41826;53.246;-6.670;2023-05-23T05:23:32;100700.84;;;10.67;100.00
55916;BME280;41826;53.246;-6.670;2023-05-23T05:25:58;100708.44;;;10.70;100.00
55916;BME280;41826;53.246;-6.670;2023-05-23T05:28:24;100621.09;;;10.40;100.00
55916;BME280;41826;53.246;-6.670;2023-05-23T05:30:50;100508.94;;;10.43;100.00
55916;BME280;41826;53.246;-6.670;2023-05-23T05:33:19;100504.81;;;10.40;100.00
55916;BME280;41826;53.246;-6.670;2023-05-23T05:35:47;100561.13;;;10.46;100.00
55916;BME280;41826;53.246;-6.670;2023-05-23T05:38:13;100506.19;;;10.44;100.00
55916;BME280;41826;53.246;-6.670;2023-05-23T05:40:38;100552.00;;;10.50;100.00
55916;BME280;41826;53.246;-6.670;2023-05-23T05:43:04;100586.38;;;10.56;100.00
55916;BME280;41826;53.246;-6.670;2023-05-23T05:45:29;100563.19;;;10.52;100.00
55916;BME280;41826;53.246;-6.670;2023-05-23T05:47:55;100494.56;;;10.47;100.00
55916;BME280;41826;53.246;-6.670;2023-05-23T05:50:20;100421.31;;;10.08;100.00
55916;BME280;41826;53.246;-6.670;2023-05-23T05:52:46;100386.38;;;10.25;100.00
55916;BME280;41826;53.246;-6.670;2023-05-23T05:55:11;100406.81;;;10.31;100.00
55916;BME280;41826;53.246;-6.670;2023-05-23T05:57:40;100395.50;;;10.31;100.00
55916;BME280;41826;53.246;-6.670;2023-05-23T06:00:10;100388.28;;;10.33;100.00
55916;BME280;41826;53.246;-6.670;2023-05-23T06:02:38;100387.41;;;10.42;100.00
55916;BME280;41826;53.246;-6.670;2023-05-23T06:05:05;100406.22;;;10.55;100.00
55916;BME280;41826;53.246;-6.670;2023-05-23T06:07:33;100433.91;;;10.68;100.00
55916;BME280;41826;53.246;-6.670;2023-05-23T06:09:58;100462.03;;;10.75;100.00
55916;BME280;41826;53.246;-6.670;2023-05-23T06:12:24;100499.84;;;10.82;100.00
55916;BME280;41826;53.246;-6.670;2023-05-23T06:14:49;100530.03;;;10.96;100.00
55916;BME280;41826;53.246;-6.670;2023-05-23T06:17:14;100506.81;;;10.92;100.00
55916;BME280;41826;53.246;-6.670;2023-05-23T06:19:40;100513.56;;;10.94;100.00
55916;BME280;41826;53.246;-6.670;2023-05-23T06:22:05;100511.91;;;10.93;100.00
55916;BME280;41826;53.246;-6.670;2023-05-23T06:24:31;100532.03;;;11.02;100.00
55916;BME280;41826;53.246;-6.670;2023-05-23T06:26:56;100567.31;;;11.18;100.00
55916;BME280;41826;53.246;-6.670;2023-05-23T06:29:21;100592.16;;;11.23;100.00
55916;BME280;41826;53.246;-6.670;2023-05-23T06:31:47;100605.97;;;11.25;100.00
55916;BME280;41826;53.246;-6.670;2023-05-23T06:34:12;100625.03;;;11.27;100.00
55916;BME280;41826;53.246;-6.670;2023-05-23T06:36:38;100639.38;;;11.33;100.00
55916;BME280;41826;53.246;-6.670;2023-05-23T06:39:03;100586.97;;;11.32;100.00
55916;BME280;41826;53.246;-6.670;2023-05-23T06:41:28;100601.47;;;11.36;100.00
55916;BME280;41826;53.246;-6.670;2023-05-23T06:43:54;100546.28;;;11.36;100.00
55916;BME280;41826;53.246;-6.670;2023-05-23T06:46:19;100461.81;;;11.31;100.00
55916;BME280;41826;53.246;-6.670;2023-05-23T06:48:44;100474.63;;;11.34;100.00
55916;BME280;41826;53.246;-6.670;2023-05-23T06:51:10;100508.56;;;11.45;100.00
55916;BME280;41826;53.246;-6.670;2023-05-23T06:53:35;100503.00;;;11.48;100.00
55916;BME280;41826;53.246;-6.670;2023-05-23T06:56:01;100474.22;;;11.46;100.00
55916;BME280;41826;53.246;-6.670;2023-05-23T06:58:26;100535.94;;;11.60;100.00
55916;BME280;41826;53.246;-6.670;2023-05-23T07:00:52;100579.69;;;11.69;100.00
55916;BME280;41826;53.246;-6.670;2023-05-23T07:03:17;100551.78;;;11.68;100.00
55916;BME280;41826;53.246;-6.670;2023-05-23T07:05:43;100546.06;;;11.73;100.00
55916;BME280;41826;53.246;-6.670;2023-05-23T07:08:09;100546.09;;;11.81;100.00
55916;BME280;41826;53.246;-6.670;2023-05-23T07:10:35;100413.09;;;11.79;100.00
55916;BME280;41826;53.246;-6.670;2023-05-23T07:13:00;100384.28;;;11.69;100.00
55916;BME280;41826;53.246;-6.670;2023-05-23T07:15:26;100426.41;;;11.77;100.00
55916;BME280;41826;53.246;-6.670;2023-05-23T07:17:51;100440.06;;;11.81;100.00
55916;BME280;41826;53.246;-6.670;2023-05-23T07:20:17;100463.81;;;11.89;100.00
55916;BME280;41826;53.246;-6.670;2023-05-23T07:22:42;100455.13;;;11.97;100.00
55916;BME280;41826;53.246;-6.670;2023-05-23T07:25:08;100464.34;;;12.01;100.00
55916;BME280;41826;53.246;-6.670;2023-05-23T07:27:33;100493.22;;;12.19;100.00
55916;BME280;41826;53.246;-6.670;2023-05-23T07:29:59;100541.59;;;12.26;100.00
55916;BME280;41826;53.246;-6.670;2023-05-23T07:32:25;100492.22;;;12.28;100.00
55916;BME280;41826;53.246;-6.670;2023-05-23T07:34:50;100525.34;;;12.39;100.00
55916;BME280;41826;53.246;-6.670;2023-05-23T07:37:16;100467.41;;;12.30;100.00
55916;BME280;41826;53.246;-6.670;2023-05-23T07:39:42;100518.47;;;12.46;100.00
55916;BME280;41826;53.246;-6.670;2023-05-23T07:42:07;100515.03;;;12.53;100.00
55916;BME280;41826;53.246;-6.670;2023-05-23T07:44:32;100529.53;;;12.66;100.00
55916;BME280;41826;53.246;-6.670;2023-05-23T07:46:58;100535.81;;;12.81;100.00
55916;BME280;41826;53.246;-6.670;2023-05-23T07:49:23;100505.88;;;12.74;100.00
55916;BME280;41826;53.246;-6.670;2023-05-23T07:51:49;100501.75;;;12.79;100.00
55916;BME280;41826;53.246;-6.670;2023-05-23T07:54:14;100441.81;;;12.82;100.00
55916;BME280;41826;53.246;-6.670;2023-05-23T07:56:41;100449.88;;;12.88;100.00
55916;BME280;41826;53.246;-6.670;2023-05-23T07:59:07;100456.81;;;12.97;100.00
55916;BME280;41826;53.246;-6.670;2023-05-23T08:01:32;100429.28;;;12.84;100.00
55916;BME280;41826;53.246;-6.670;2023-05-23T08:03:58;100400.31;;;13.00;100.00
55916;BME280;41826;53.246;-6.670;2023-05-23T08:06:23;100422.53;;;13.22;100.00
55916;BME280;41826;53.246;-6.670;2023-05-23T08:08:52;100413.16;;;13.28;100.00
55916;BME280;41826;53.246;-6.670;2023-05-23T08:11:17;100408.69;;;13.28;100.00
55916;BME280;41826;53.246;-6.670;2023-05-23T08:13:42;100381.66;;;13.42;100.00
55916;BME280;41826;53.246;-6.670;2023-05-23T08:16:08;100398.75;;;13.47;100.00
55916;BME280;41826;53.246;-6.670;2023-05-23T08:18:33;100432.69;;;13.58;100.00
55916;BME280;41826;53.246;-6.670;2023-05-23T08:21:00;100462.47;;;13.75;100.00
55916;BME280;41826;53.246;-6.670;2023-05-23T08:23:27;100463.63;;;13.72;100.00
55916;BME280;41826;53.246;-6.670;2023-05-23T08:25:53;100442.28;;;13.51;100.00
55916;BME280;41826;53.246;-6.670;2023-05-23T08:28:18;100421.31;;;13.97;100.00
55916;BME280;41826;53.246;-6.670;2023-05-23T08:30:44;100478.41;;;13.90;100.00
55916;BME280;41826;53.246;-6.670;2023-05-23T08:33:09;100516.91;;;14.15;100.00
55916;BME280;41826;53.246;-6.670;2023-05-23T08:35:35;100461.28;;;14.25;100.00
55916;BME280;41826;53.246;-6.670;2023-05-23T08:38:05;100458.72;;;13.61;100.00
55916;BME280;41826;53.246;-6.670;2023-05-23T08:40:32;100436.09;;;13.75;100.00
55916;BME280;41826;53.246;-6.670;2023-05-23T08:42:58;100432.06;;;14.26;100.00
55916;BME280;41826;53.246;-6.670;2023-05-23T08:45:24;100496.03;;;14.05;100.00
55916;BME280;41826;53.246;-6.670;2023-05-23T08:47:50;100504.69;;;14.22;100.00
55916;BME280;41826;53.246;-6.670;2023-05-23T08:50:17;100538.16;;;14.69;100.00
55916;BME280;41826;53.246;-6.670;2023-05-23T08:53:02;100595.03;;;14.88;100.00
55916;BME280;41826;53.246;-6.670;2023-05-23T08:55:29;100587.09;;;15.11;100.00
55916;BME280;41826;53.246;-6.670;2023-05-23T08:57:56;100576.78;;;15.02;100.00
55916;BME280;41826;53.246;-6.670;2023-05-23T09:00:25;100579.19;;;15.11;100.00
55916;BME280;41826;53.246;-6.670;2023-05-23T09:02:51;100579.94;;;14.97;100.00
55916;BME280;41826;53.246;-6.670;2023-05-23T09:05:17;100606.47;;;14.81;100.00
55916;BME280;41826;53.246;-6.670;2023-05-23T09:07:45;100602.06;;;14.96;100.00
55916;BME280;41826;53.246;-6.670;2023-05-23T09:10:14;100649.25;;;14.76;100.00
55916;BME280;41826;53.246;-6.670;2023-05-23T09:12:42;100662.81;;;15.12;100.00
55916;BME280;41826;53.246;-6.670;2023-05-23T09:15:08;100684.16;;;15.57;100.00
55916;BME280;41826;53.246;-6.670;2023-05-23T09:17:35;100703.06;;;15.23;100.00
55916;BME280;41826;53.246;-6.670;2023-05-23T09:20:13;100656.00;;;15.41;100.00
55916;BME280;41826;53.246;-6.670;2023-05-23T09:22:39;100700.75;;;15.51;100.00
55916;BME280;41826;53.246;-6.670;2023-05-23T09:25:05;100744.91;;;15.50;100.00
55916;BME280;41826;53.246;-6.670;2023-05-23T09:27:31;100785.84;;;15.94;100.00
55916;BME280;41826;53.246;-6.670;2023-05-23T09:29:56;100813.09;;;16.25;100.00
55916;BME280;41826;53.246;-6.670;2023-05-23T09:32:21;100800.31;;;16.29;100.00
55916;BME280;41826;53.246;-6.670;2023-05-23T09:37:39;100755.25;;;15.91;100.00
55916;BME280;41826;53.246;-6.670;2023-05-23T09:40:08;100807.38;;;16.37;100.00
55916;BME280;41826;53.246;-6.670;2023-05-23T09:42:44;100875.09;;;16.77;100.00
55916;BME280;41826;53.246;-6.670;2023-05-23T09:45:13;100882.66;;;17.03;100.00
55916;BME280;41826;53.246;-6.670;2023-05-23T09:47:48;100867.13;;;17.00;100.00
55916;BME280;41826;53.246;-6.670;2023-05-23T09:50:13;100909.56;;;17.00;100.00
55916;BME280;41826;53.246;-6.670;2023-05-23T09:52:38;100922.16;;;16.75;100.00
55916;BME280;41826;53.246;-6.670;2023-05-23T09:55:05;100897.66;;;16.96;100.00
55916;BME280;41826;53.246;-6.670;2023-05-23T09:57:34;100924.28;;;17.03;100.00
55916;BME280;41826;53.246;-6.670;2023-05-23T10:00:02;100965.72;;;17.04;100.00
55916;BME280;41826;53.246;-6.670;2023-05-23T10:02:53;100995.25;;;17.01;100.00
55916;BME280;41826;53.246;-6.670;2023-05-23T10:05:43;100941.06;;;15.39;100.00
55916;BME280;41826;53.246;-6.670;2023-05-23T10:11:40;100906.34;;;16.67;100.00
55916;BME280;41826;53.246;-6.670;2023-05-23T10:14:08;100885.56;;;16.94;100.00
55916;BME280;41826;53.246;-6.670;2023-05-23T10:19:21;101009.34;;;16.78;100.00
55916;BME280;41826;53.246;-6.670;2023-05-23T10:22:00;100942.06;;;17.17;100.00
55916;BME280;41826;53.246;-6.670;2023-05-23T10:24:27;100937.88;;;17.67;100.00
55916;BME280;41826;53.246;-6.670;2023-05-23T10:26:53;100999.38;;;17.56;100.00
55916;BME280;41826;53.246;-6.670;2023-05-23T10:29:23;100996.94;;;17.99;100.00
55916;BME280;41826;53.246;-6.670;2023-05-23T10:31:50;101073.28;;;17.29;100.00
55916;BME280;41826;53.246;-6.670;2023-05-23T10:34:31;100989.97;;;18.13;100.00
55916;BME280;41826;53.246;-6.670;2023-05-23T10:37:01;101084.16;;;17.95;100.00
55916;BME280;41826;53.246;-6.670;2023-05-23T10:42:34;101034.00;;;18.37;100.00
55916;BME280;41826;53.246;-6.670;2023-05-23T10:45:17;101158.38;;;18.12;100.00
55916;BME280;41826;53.246;-6.670;2023-05-23T10:47:45;101051.63;;;18.08;100.00
55916;BME280;41826;53.246;-6.670;2023-05-23T10:50:16;100954.53;;;17.46;100.00
55916;BME280;41826;53.246;-6.670;2023-05-23T10:52:53;100916.44;;;17.54;100.00
55916;BME280;41826;53.246;-6.670;2023-05-23T10:55:19;100956.56;;;17.06;100.00
55916;BME280;41826;53.246;-6.670;2023-05-23T10:57:44;100950.41;;;17.44;100.00
55916;BME280;41826;53.246;-6.670;2023-05-23T11:00:14;100953.94;;;17.21;100.00
55916;BME280;41826;53.246;-6.670;2023-05-23T11:03:01;100897.19;;;17.96;100.00
55916;BME280;41826;53.246;-6.670;2023-05-23T11:05:29;101015.41;;;18.22;100.00
55916;BME280;41826;53.246;-6.670;2023-05-23T11:08:08;100974.78;;;18.86;100.00
55916;BME280;41826;53.246;-6.670;2023-05-23T11:13:15;101051.94;;;18.50;100.00
55916;BME280;41826;53.246;-6.670;2023-05-23T11:15:41;101099.38;;;18.31;100.00
55916;BME280;41826;53.246;-6.670;2023-05-23T11:18:07;101046.94;;;16.82;100.00
55916;BME280;41826;53.246;-6.670;2023-05-23T11:20:33;101015.31;;;17.56;100.00
55916;BME280;41826;53.246;-6.670;2023-05-23T11:23:06;100966.56;;;18.59;100.00
55916;BME280;41826;53.246;-6.670;2023-05-23T11:28:09;101140.28;;;19.18;100.00
55916;BME280;41826;53.246;-6.670;2023-05-23T11:30:35;101215.44;;;19.35;100.00
55916;BME280;41826;53.246;-6.670;2023-05-23T11:33:08;101293.84;;;18.88;100.00
55916;BME280;41826;53.246;-6.670;2023-05-23T11:35:38;101284.13;;;19.10;100.00
55916;BME280;41826;53.246;-6.670;2023-05-23T11:38:04;101330.50;;;18.62;100.00
55916;BME280;41826;53.246;-6.670;2023-05-23T11:40:48;101286.59;;;18.29;100.00
55916;BME280;41826;53.246;-6.670;2023-05-23T11:43:15;101141.88;;;18.16;100.00
55916;BME280;41826;53.246;-6.670;2023-05-23T11:45:42;101075.16;;;18.92;100.00
55916;BME280;41826;53.246;-6.670;2023-05-23T11:48:12;101129.44;;;19.41;100.00
55916;BME280;41826;53.246;-6.670;2023-05-23T11:53:12;101225.56;;;18.35;100.00
55916;BME280;41826;53.246;-6.670;2023-05-23T11:55:39;101148.50;;;19.01;100.00
55916;BME280;41826;53.246;-6.670;2023-05-23T11:58:06;101183.19;;;19.08;100.00
55916;BME280;41826;53.246;-6.670;2023-05-23T12:00:31;101290.09;;;18.82;100.00
55916;BME280;41826;53.246;-6.670;2023-05-23T12:02:56;101217.84;;;19.51;100.00
55916;BME280;41826;53.246;-6.670;2023-05-23T12:05:22;101281.91;;;19.13;100.00
55916;BME280;41826;53.246;-6.670;2023-05-23T12:07:48;101253.94;;;19.17;100.00
55916;BME280;41826;53.246;-6.670;2023-05-23T12:10:16;101354.97;;;19.40;100.00
55916;BME280;41826;53.246;-6.670;2023-05-23T12:12:42;101278.69;;;19.69;100.00
55916;BME280;41826;53.246;-6.670;2023-05-23T12:15:09;101273.44;;;20.25;100.00
55916;BME280;41826;53.246;-6.670;2023-05-23T12:17:42;101258.19;;;20.41;100.00
55916;BME280;41826;53.246;-6.670;2023-05-23T12:20:10;101245.28;;;20.44;100.00
55916;BME280;41826;53.246;-6.670;2023-05-23T12:22:36;101342.66;;;20.33;100.00
55916;BME280;41826;53.246;-6.670;2023-05-23T12:25:01;101345.09;;;20.28;100.00
55916;BME280;41826;53.246;-6.670;2023-05-23T12:27:34;101346.84;;;20.64;100.00
55916;BME280;41826;53.246;-6.670;2023-05-23T12:30:10;101479.91;;;19.27;100.00
55916;BME280;41826;53.246;-6.670;2023-05-23T12:32:39;101333.69;;;19.62;100.00
55916;BME280;41826;53.246;-6.670;2023-05-23T12:35:07;101280.94;;;20.37;100.00
55916;BME280;41826;53.246;-6.670;2023-05-23T12:37:33;101240.97;;;20.71;100.00
55916;BME280;41826;53.246;-6.670;2023-05-23T12:40:14;101313.50;;;20.53;100.00
55916;BME280;41826;53.246;-6.670;2023-05-23T12:42:58;101355.94;;;19.39;100.00
55916;BME280;41826;53.246;-6.670;2023-05-23T12:45:32;101233.59;;;20.10;100.00
55916;BME280;41826;53.246;-6.670;2023-05-23T12:47:59;101268.44;;;20.65;100.00
55916;BME280;41826;53.246;-6.670;2023-05-23T12:50:24;101376.53;;;19.75;100.00
55916;BME280;41826;53.246;-6.670;2023-05-23T12:52:52;101237.16;;;20.24;100.00
55916;BME280;41826;53.246;-6.670;2023-05-23T12:55:18;101431.69;;;19.37;100.00